sensor_id;sensor_type;location;lat;lon;timestamp;temperature;humidity
31725;DHT22;18306;40.960;14.836;2023-11-21T00:00:15;20.60;99.90
31725;DHT22;18306;40.960;14.836;2023-11-21T00:02:43;20.50;99.90
31725;DHT22;18306;40.960;14.836;2023-11-21T00:05:16;20.50;99.90
31725;DHT22;18306;40.960;14.836;2023-11-21T00:07:47;20.70;99.90
31725;DHT22;18306;40.960;14.836;2023-11-21T00:10:14;20.80;99.90
31725;DHT22;18306;40.960;14.836;2023-11-21T00:12:43;20.80;99.90
31725;DHT22;18306;40.960;14.836;2023-11-21T00:15:10;20.80;99.90
31725;DHT22;18306;40.960;14.836;2023-11-21T00:17:40;20.80;99.90
31725;DHT22;18306;40.960;14.836;2023-11-21T00:20:08;20.60;99.90
31725;DHT22;18306;40.960;14.836;2023-11-21T00:22:35;20.70;99.90
31725;DHT22;18306;40.960;14.836;2023-11-21T00:25:03;20.90;99.90
31725;DHT22;18306;40.960;14.836;2023-11-21T00:27:31;20.90;99.90
31725;DHT22;18306;40.960;14.836;2023-11-21T00:29:58;20.90;99.90
31725;DHT22;18306;40.960;14.836;2023-11-21T00:32:25;21.00;99.90
31725;DHT22;18306;40.960;14.836;2023-11-21T00:34:52;20.70;99.90
31725;DHT22;18306;40.960;14.836;2023-11-21T00:37:22;20.60;99.90
31725;DHT22;18306;40.960;14.836;2023-11-21T00:39:50;20.60;99.90
31725;DHT22;18306;40.960;14.836;2023-11-21T00:42:17;20.60;99.90
31725;DHT22;18306;40.960;14.836;2023-11-21T00:44:45;20.40;99.90
31725;DHT22;18306;40.960;14.836;2023-11-21T00:47:12;19.90;99.90
31725;DHT22;18306;40.960;14.836;2023-11-21T00:49:41;19.80;99.90
31725;DHT22;18306;40.960;14.836;2023-11-21T00:52:09;20.10;99.90
31725;DHT22;18306;40.960;14.836;2023-11-21T00:54:36;20.20;99.90
31725;DHT22;18306;40.960;14.836;2023-11-21T00:57:03;20.20;99.90
31725;DHT22;18306;40.960;14.836;2023-11-21T00:59:30;19.80;99.90
31725;DHT22;18306;40.960;14.836;2023-11-21T01:01:57;19.70;99.90
31725;DHT22;18306;40.960;14.836;2023-11-21T01:04:27;19.60;99.90
31725;DHT22;18306;40.960;14.836;2023-11-21T01:06:54;19.50;99.90
31725;DHT22;18306;40.960;14.836;2023-11-21T01:09:21;19.60;99.90
31725;DHT22;18306;40.960;14.836;2023-11-21T01:11:48;19.60;99.90
31725;DHT22;18306;40.960;14.836;2023-11-21T01:14:16;19.50;99.90
31725;DHT22;18306;40.960;14.836;2023-11-21T01:16:44;19.50;99.90
31725;DHT22;18306;40.960;14.836;2023-11-21T01:19:11;19.60;99.90
31725;DHT22;18306;40.960;14.836;2023-11-21T01:21:38;19.80;99.90
31725;DHT22;18306;40.960;14.836;2023-11-21T01:24:05;19.80;99.90
31725;DHT22;18306;40.960;14.836;2023-11-21T01:26:33;19.70;99.90
31725;DHT22;18306;40.960;14.836;2023-11-21T01:29:02;19.70;99.90
31725;DHT22;18306;40.960;14.836;2023-11-21T01:31:29;20.00;99.90
31725;DHT22;18306;40.960;14.836;2023-11-21T01:33:56;20.20;99.90
31725;DHT22;18306;40.960;14.836;2023-11-21T01:36:23;20.30;99.90
31725;DHT22;18306;40.960;14.836;2023-11-21T01:38:56;20.30;99.90
31725;DHT22;18306;40.960;14.836;2023-11-21T01:41:27;20.40;99.90
31725;DHT22;18306;40.960;14.836;2023-11-21T01:43:57;20.60;99.90
31725;DHT22;18306;40.960;14.836;2023-11-21T01:46:24;20.70;99.90
31725;DHT22;18306;40.960;14.836;2023-11-21T01:48:53;20.70;99.90
31725;DHT22;18306;40.960;14.836;2023-11-21T01:51:20;20.80;99.90
31725;DHT22;18306;40.960;14.836;2023-11-21T01:53:47;20.80;99.90
31725;DHT22;18306;40.960;14.836;2023-11-21T01:56:16;20.80;99.90
31725;DHT22;18306;40.960;14.836;2023-11-21T01:58:43;20.80;99.90
31725;DHT22;18306;40.960;14.836;2023-11-21T02:01:13;20.80;99.90
31725;DHT22;18306;40.960;14.836;2023-11-21T02:03:40;20.70;99.90
31725;DHT22;18306;40.960;14.836;2023-11-21T02:06:08;20.70;99.90
31725;DHT22;18306;40.960;14.836;2023-11-21T02:08:35;20.60;99.90
31725;DHT22;18306;40.960;14.836;2023-11-21T02:11:04;20.60;99.90
31725;DHT22;18306;40.960;14.836;2023-11-21T02:13:32;20.70;99.90
31725;DHT22;18306;40.960;14.836;2023-11-21T02:15:59;20.50;99.90
31725;DHT22;18306;40.960;14.836;2023-11-21T02:18:26;20.60;99.90
31725;DHT22;18306;40.960;14.836;2023-11-21T02:20:56;20.50;99.90
31725;DHT22;18306;40.960;14.836;2023-11-21T02:23:23;20.60;99.90
31725;DHT22;18306;40.960;14.836;2023-11-21T02:25:55;20.50;99.90
31725;DHT22;18306;40.960;14.836;2023-11-21T02:28:22;20.20;99.90
31725;DHT22;18306;40.960;14.836;2023-11-21T02:30:53;20.10;99.90
31725;DHT22;18306;40.960;14.836;2023-11-21T02:33:22;20.10;99.90
31725;DHT22;18306;40.960;14.836;2023-11-21T02:35:49;20.10;99.90
31725;DHT22;18306;40.960;14.836;2023-11-21T02:38:17;20.20;99.90
31725;DHT22;18306;40.960;14.836;2023-11-21T02:40:46;20.20;99.90
31725;DHT22;18306;40.960;14.836;2023-11-21T02:43:13;20.00;99.90
31725;DHT22;18306;40.960;14.836;2023-11-21T02:45:40;20.20;99.90
31725;DHT22;18306;40.960;14.836;2023-11-21T02:48:08;20.20;99.90
31725;DHT22;18306;40.960;14.836;2023-11-21T02:50:36;20.10;99.90
31725;DHT22;18306;40.960;14.836;2023-11-21T02:53:04;20.20;99.90
31725;DHT22;18306;40.960;14.836;2023-11-21T02:55:32;20.10;99.90
31725;DHT22;18306;40.960;14.836;2023-11-21T02:58:02;20.10;99.90
31725;DHT22;18306;40.960;14.836;2023-11-21T03:00:32;20.10;99.90
31725;DHT22;18306;40.960;14.836;2023-11-21T03:03:00;20.30;99.90
31725;DHT22;18306;40.960;14.836;2023-11-21T03:05:27;20.00;99.90
31725;DHT22;18306;40.960;14.836;2023-11-21T03:07:55;19.90;99.90
31725;DHT22;18306;40.960;14.836;2023-11-21T03:10:22;20.10;99.90
31725;DHT22;18306;40.960;14.836;2023-11-21T03:12:50;20.40;99.90
31725;DHT22;18306;40.960;14.836;2023-11-21T03:15:17;20.10;99.90
31725;DHT22;18306;40.960;14.836;2023-11-21T03:17:44;20.10;99.90
31725;DHT22;18306;40.960;14.836;2023-11-21T03:20:11;19.80;99.90
31725;DHT22;18306;40.960;14.836;2023-11-21T03:22:40;19.90;99.90
31725;DHT22;18306;40.960;14.836;2023-11-21T03:25:08;19.50;99.90
31725;DHT22;18306;40.960;14.836;2023-11-21T03:27:37;19.50;99.90
31725;DHT22;18306;40.960;14.836;2023-11-21T03:30:08;19.40;99.90
31725;DHT22;18306;40.960;14.836;2023-11-21T03:32:35;19.30;99.90
31725;DHT22;18306;40.960;14.836;2023-11-21T03:35:02;19.20;99.90
31725;DHT22;18306;40.960;14.836;2023-11-21T03:37:30;19.30;99.90
31725;DHT22;18306;40.960;14.836;2023-11-21T03:39:57;19.50;99.90
31725;DHT22;18306;40.960;14.836;2023-11-21T03:42:24;19.70;99.90
31725;DHT22;18306;40.960;14.836;2023-11-21T03:44:53;19.70;99.90
31725;DHT22;18306;40.960;14.836;2023-11-21T03:47:21;19.60;99.90
31725;DHT22;18306;40.960;14.836;2023-11-21T03:49:48;19.40;99.90
31725;DHT22;18306;40.960;14.836;2023-11-21T03:52:16;19.20;99.90
31725;DHT22;18306;40.960;14.836;2023-11-21T03:54:43;19.20;99.90
31725;DHT22;18306;40.960;14.836;2023-11-21T03:57:11;19.00;99.90
31725;DHT22;18306;40.960;14.836;2023-11-21T03:59:42;19.00;99.90
31725;DHT22;18306;40.960;14.836;2023-11-21T04:02:09;18.90;99.90
31725;DHT22;18306;40.960;14.836;2023-11-21T04:04:36;18.90;99.90
31725;DHT22;18306;40.960;14.836;2023-11-21T04:07:03;18.80;99.90
31725;DHT22;18306;40.960;14.836;2023-11-21T04:09:31;18.90;99.90
31725;DHT22;18306;40.960;14.836;2023-11-21T04:11:57;18.80;99.90
31725;DHT22;18306;40.960;14.836;2023-11-21T04:14:25;18.80;99.90
31725;DHT22;18306;40.960;14.836;2023-11-21T04:16:52;18.80;99.90
31725;DHT22;18306;40.960;14.836;2023-11-21T04:19:20;18.80;99.90
31725;DHT22;18306;40.960;14.836;2023-11-21T04:21:47;19.00;99.90
31725;DHT22;18306;40.960;14.836;2023-11-21T04:24:14;19.00;99.90
31725;DHT22;18306;40.960;14.836;2023-11-21T04:26:41;18.80;99.90
31725;DHT22;18306;40.960;14.836;2023-11-21T04:29:11;18.80;99.90
31725;DHT22;18306;40.960;14.836;2023-11-21T04:31:38;18.80;99.90
31725;DHT22;18306;40.960;14.836;2023-11-21T04:34:06;18.50;99.90
31725;DHT22;18306;40.960;14.836;2023-11-21T04:36:34;18.50;99.90
31725;DHT22;18306;40.960;14.836;2023-11-21T04:39:01;18.70;99.90
31725;DHT22;18306;40.960;14.836;2023-11-21T04:41:28;18.80;99.90
31725;DHT22;18306;40.960;14.836;2023-11-21T04:43:56;18.90;99.90
31725;DHT22;18306;40.960;14.836;2023-11-21T04:46:23;19.00;99.90
31725;DHT22;18306;40.960;14.836;2023-11-21T04:48:50;19.10;99.90
31725;DHT22;18306;40.960;14.836;2023-11-21T04:51:16;19.20;99.90
31725;DHT22;18306;40.960;14.836;2023-11-21T04:53:44;19.20;99.90
31725;DHT22;18306;40.960;14.836;2023-11-21T04:56:11;19.00;99.90
31725;DHT22;18306;40.960;14.836;2023-11-21T04:58:38;19.00;99.90
31725;DHT22;18306;40.960;14.836;2023-11-21T05:01:07;19.00;99.90
31725;DHT22;18306;40.960;14.836;2023-11-21T05:03:35;19.00;99.90
31725;DHT22;18306;40.960;14.836;2023-11-21T05:06:02;18.90;99.90
31725;DHT22;18306;40.960;14.836;2023-11-21T05:08:31;18.90;99.90
31725;DHT22;18306;40.960;14.836;2023-11-21T05:10:58;19.10;99.90
31725;DHT22;18306;40.960;14.836;2023-11-21T05:13:25;19.30;99.90
31725;DHT22;18306;40.960;14.836;2023-11-21T05:15:55;19.30;99.90
31725;DHT22;18306;40.960;14.836;2023-11-21T05:18:25;19.40;99.90
31725;DHT22;18306;40.960;14.836;2023-11-21T05:20:53;19.40;99.90
31725;DHT22;18306;40.960;14.836;2023-11-21T05:23:20;19.40;99.90
31725;DHT22;18306;40.960;14.836;2023-11-21T05:25:47;19.40;99.90
31725;DHT22;18306;40.960;14.836;2023-11-21T05:28:14;19.40;99.90
31725;DHT22;18306;40.960;14.836;2023-11-21T05:30:41;19.40;99.90
31725;DHT22;18306;40.960;14.836;2023-11-21T05:33:09;19.50;99.90
31725;DHT22;18306;40.960;14.836;2023-11-21T05:35:36;19.30;99.90
31725;DHT22;18306;40.960;14.836;2023-11-21T05:38:03;19.20;99.90
31725;DHT22;18306;40.960;14.836;2023-11-21T05:40:30;19.20;99.90
31725;DHT22;18306;40.960;14.836;2023-11-21T05:42:57;19.20;99.90
31725;DHT22;18306;40.960;14.836;2023-11-21T05:45:24;19.20;99.90
31725;DHT22;18306;40.960;14.836;2023-11-21T05:47:51;19.50;99.90
31725;DHT22;18306;40.960;14.836;2023-11-21T05:50:18;19.40;99.90
31725;DHT22;18306;40.960;14.836;2023-11-21T05:52:46;19.60;99.90
31725;DHT22;18306;40.960;14.836;2023-11-21T05:55:14;19.80;99.90
31725;DHT22;18306;40.960;14.836;2023-11-21T05:57:42;19.90;99.90
31725;DHT22;18306;40.960;14.836;2023-11-21T06:00:12;20.00;99.90
31725;DHT22;18306;40.960;14.836;2023-11-21T06:02:59;20.00;99.90
31725;DHT22;18306;40.960;14.836;2023-11-21T06:05:27;20.00;99.90
31725;DHT22;18306;40.960;14.836;2023-11-21T06:07:55;19.80;99.90
31725;DHT22;18306;40.960;14.836;2023-11-21T06:10:26;19.60;99.90
31725;DHT22;18306;40.960;14.836;2023-11-21T06:12:53;19.80;99.90
31725;DHT22;18306;40.960;14.836;2023-11-21T06:15:20;19.80;99.90
31725;DHT22;18306;40.960;14.836;2023-11-21T06:17:50;19.90;99.90
31725;DHT22;18306;40.960;14.836;2023-11-21T06:20:21;20.10;99.90
31725;DHT22;18306;40.960;14.836;2023-11-21T06:22:51;20.20;99.90
31725;DHT22;18306;40.960;14.836;2023-11-21T06:25:18;20.00;99.90
31725;DHT22;18306;40.960;14.836;2023-11-21T06:27:47;19.80;99.90
31725;DHT22;18306;40.960;14.836;2023-11-21T06:30:14;19.60;99.90
31725;DHT22;18306;40.960;14.836;2023-11-21T06:32:42;19.40;99.90
31725;DHT22;18306;40.960;14.836;2023-11-21T06:35:12;19.30;99.90
31725;DHT22;18306;40.960;14.836;2023-11-21T06:37:39;19.50;99.90
31725;DHT22;18306;40.960;14.836;2023-11-21T06:40:07;19.80;99.90
31725;DHT22;18306;40.960;14.836;2023-11-21T06:42:36;19.90;99.90
31725;DHT22;18306;40.960;14.836;2023-11-21T06:45:05;19.80;99.90
31725;DHT22;18306;40.960;14.836;2023-11-21T06:47:33;20.00;99.90
31725;DHT22;18306;40.960;14.836;2023-11-21T06:50:01;20.00;99.90
31725;DHT22;18306;40.960;14.836;2023-11-21T06:52:28;20.20;99.90
31725;DHT22;18306;40.960;14.836;2023-11-21T06:55:01;20.30;99.90
31725;DHT22;18306;40.960;14.836;2023-11-21T06:57:31;20.40;99.90
31725;DHT22;18306;40.960;14.836;2023-11-21T06:59:59;20.50;99.90
31725;DHT22;18306;40.960;14.836;2023-11-21T07:02:26;20.60;99.90
31725;DHT22;18306;40.960;14.836;2023-11-21T07:04:54;20.50;99.90
31725;DHT22;18306;40.960;14.836;2023-11-21T07:07:22;20.60;99.90
31725;DHT22;18306;40.960;14.836;2023-11-21T07:09:50;20.70;99.90
31725;DHT22;18306;40.960;14.836;2023-11-21T07:12:20;20.90;99.90
31725;DHT22;18306;40.960;14.836;2023-11-21T07:14:50;20.80;99.90
31725;DHT22;18306;40.960;14.836;2023-11-21T07:17:24;20.90;99.90
31725;DHT22;18306;40.960;14.836;2023-11-21T07:19:54;21.00;99.90
31725;DHT22;18306;40.960;14.836;2023-11-21T07:22:21;21.00;99.90
31725;DHT22;18306;40.960;14.836;2023-11-21T07:24:49;21.10;99.90
31725;DHT22;18306;40.960;14.836;2023-11-21T07:27:17;21.10;99.90
31725;DHT22;18306;40.960;14.836;2023-11-21T07:29:45;21.10;99.90
31725;DHT22;18306;40.960;14.836;2023-11-21T07:32:12;21.10;99.90
31725;DHT22;18306;40.960;14.836;2023-11-21T07:34:41;21.00;99.90
31725;DHT22;18306;40.960;14.836;2023-11-21T07:37:08;20.60;99.90
31725;DHT22;18306;40.960;14.836;2023-11-21T07:39:39;20.40;99.90
31725;DHT22;18306;40.960;14.836;2023-11-21T07:42:08;20.40;99.90
31725;DHT22;18306;40.960;14.836;2023-11-21T07:44:40;20.60;99.90
31725;DHT22;18306;40.960;14.836;2023-11-21T07:47:07;20.50;99.90
31725;DHT22;18306;40.960;14.836;2023-11-21T07:49:34;20.50;99.90
31725;DHT22;18306;40.960;14.836;2023-11-21T07:52:01;20.40;99.90
31725;DHT22;18306;40.960;14.836;2023-11-21T07:54:28;20.40;99.90
31725;DHT22;18306;40.960;14.836;2023-11-21T07:56:55;20.30;99.90
31725;DHT22;18306;40.960;14.836;2023-11-21T07:59:22;20.40;99.90
31725;DHT22;18306;40.960;14.836;2023-11-21T08:01:49;20.40;99.90
31725;DHT22;18306;40.960;14.836;2023-11-21T08:04:17;20.40;99.90
31725;DHT22;18306;40.960;14.836;2023-11-21T08:06:43;20.40;99.90
31725;DHT22;18306;40.960;14.836;2023-11-21T08:09:14;20.40;99.90
31725;DHT22;18306;40.960;14.836;2023-11-21T08:11:43;20.30;99.90
31725;DHT22;18306;40.960;14.836;2023-11-21T08:14:11;20.00;99.90
31725;DHT22;18306;40.960;14.836;2023-11-21T08:16:38;19.70;99.90
31725;DHT22;18306;40.960;14.836;2023-11-21T08:19:05;19.80;99.90
31725;DHT22;18306;40.960;14.836;2023-11-21T08:21:32;19.80;99.90
31725;DHT22;18306;40.960;14.836;2023-11-21T08:24:00;19.90;99.90
31725;DHT22;18306;40.960;14.836;2023-11-21T08:26:28;20.10;99.90
31725;DHT22;18306;40.960;14.836;2023-11-21T08:28:55;20.00;99.90
31725;DHT22;18306;40.960;14.836;2023-11-21T08:31:29;19.80;99.90
31725;DHT22;18306;40.960;14.836;2023-11-21T08:34:01;19.80;99.90
31725;DHT22;18306;40.960;14.836;2023-11-21T08:36:29;19.70;99.90
31725;DHT22;18306;40.960;14.836;2023-11-21T08:39:01;19.60;99.90
31725;DHT22;18306;40.960;14.836;2023-11-21T08:41:28;19.90;99.90
31725;DHT22;18306;40.960;14.836;2023-11-21T08:43:57;20.00;99.90
31725;DHT22;18306;40.960;14.836;2023-11-21T08:46:24;19.70;99.90
31725;DHT22;18306;40.960;14.836;2023-11-21T08:48:52;20.10;99.90
31725;DHT22;18306;40.960;14.836;2023-11-21T08:51:19;20.20;99.90
31725;DHT22;18306;40.960;14.836;2023-11-21T08:53:47;20.20;99.90
31725;DHT22;18306;40.960;14.836;2023-11-21T08:56:14;20.20;99.90
31725;DHT22;18306;40.960;14.836;2023-11-21T08:58:41;20.50;99.90
31725;DHT22;18306;40.960;14.836;2023-11-21T09:01:08;20.70;99.90
31725;DHT22;18306;40.960;14.836;2023-11-21T09:03:35;20.50;99.90
31725;DHT22;18306;40.960;14.836;2023-11-21T09:06:02;20.70;99.90
31725;DHT22;18306;40.960;14.836;2023-11-21T09:08:30;20.90;99.90
31725;DHT22;18306;40.960;14.836;2023-11-21T09:10:57;20.80;99.90
31725;DHT22;18306;40.960;14.836;2023-11-21T09:13:24;20.60;99.90
31725;DHT22;18306;40.960;14.836;2023-11-21T09:15:51;20.40;99.90
31725;DHT22;18306;40.960;14.836;2023-11-21T09:18:18;20.30;99.90
31725;DHT22;18306;40.960;14.836;2023-11-21T09:21:18;20.10;99.90
31725;DHT22;18306;40.960;14.836;2023-11-21T09:23:45;20.00;99.90
31725;DHT22;18306;40.960;14.836;2023-11-21T09:26:12;20.00;99.90
31725;DHT22;18306;40.960;14.836;2023-11-21T09:28:41;20.00;99.90
31725;DHT22;18306;40.960;14.836;2023-11-21T09:31:13;20.20;99.90
31725;DHT22;18306;40.960;14.836;2023-11-21T09:33:45;20.30;99.90
31725;DHT22;18306;40.960;14.836;2023-11-21T09:36:12;20.40;99.90
31725;DHT22;18306;40.960;14.836;2023-11-21T09:38:42;20.40;99.90
31725;DHT22;18306;40.960;14.836;2023-11-21T09:41:28;20.40;99.90
31725;DHT22;18306;40.960;14.836;2023-11-21T09:44:02;20.40;99.90
31725;DHT22;18306;40.960;14.836;2023-11-21T09:46:34;20.40;99.90
31725;DHT22;18306;40.960;14.836;2023-11-21T09:49:09;20.40;99.90
31725;DHT22;18306;40.960;14.836;2023-11-21T09:51:43;20.40;99.90
31725;DHT22;18306;40.960;14.836;2023-11-21T09:54:15;20.50;99.90
31725;DHT22;18306;40.960;14.836;2023-11-21T09:56:43;20.30;99.90
31725;DHT22;18306;40.960;14.836;2023-11-21T09:59:13;20.60;99.90
31725;DHT22;18306;40.960;14.836;2023-11-21T10:01:41;20.80;99.90
31725;DHT22;18306;40.960;14.836;2023-11-21T10:04:09;21.10;99.90
31725;DHT22;18306;40.960;14.836;2023-11-21T10:06:40;21.10;99.90
31725;DHT22;18306;40.960;14.836;2023-11-21T10:09:10;21.10;99.90
31725;DHT22;18306;40.960;14.836;2023-11-21T10:11:41;21.30;99.90
31725;DHT22;18306;40.960;14.836;2023-11-21T10:14:13;21.10;99.90
31725;DHT22;18306;40.960;14.836;2023-11-21T10:16:41;20.90;99.90
31725;DHT22;18306;40.960;14.836;2023-11-21T10:19:11;21.00;99.90
31725;DHT22;18306;40.960;14.836;2023-11-21T10:21:42;21.00;99.90
31725;DHT22;18306;40.960;14.836;2023-11-21T10:24:09;21.20;99.90
31725;DHT22;18306;40.960;14.836;2023-11-21T10:26:36;21.20;99.90
31725;DHT22;18306;40.960;14.836;2023-11-21T10:29:04;21.20;99.90
31725;DHT22;18306;40.960;14.836;2023-11-21T10:31:32;21.50;99.90
31725;DHT22;18306;40.960;14.836;2023-11-21T10:34:19;21.50;99.90
31725;DHT22;18306;40.960;14.836;2023-11-21T10:36:47;21.30;99.90
31725;DHT22;18306;40.960;14.836;2023-11-21T10:39:18;21.00;99.90
31725;DHT22;18306;40.960;14.836;2023-11-21T10:41:46;20.90;99.90
31725;DHT22;18306;40.960;14.836;2023-11-21T10:44:15;21.00;99.90
31725;DHT22;18306;40.960;14.836;2023-11-21T10:46:54;21.10;99.90
31725;DHT22;18306;40.960;14.836;2023-11-21T10:49:27;21.50;99.90
31725;DHT22;18306;40.960;14.836;2023-11-21T10:51:54;21.50;99.90
31725;DHT22;18306;40.960;14.836;2023-11-21T10:54:23;21.40;99.90
31725;DHT22;18306;40.960;14.836;2023-11-21T10:57:00;21.50;99.90
31725;DHT22;18306;40.960;14.836;2023-11-21T10:59:31;21.60;99.90
31725;DHT22;18306;40.960;14.836;2023-11-21T11:02:06;21.50;99.90
31725;DHT22;18306;40.960;14.836;2023-11-21T11:04:38;21.60;99.90
31725;DHT22;18306;40.960;14.836;2023-11-21T11:07:08;21.80;99.90
31725;DHT22;18306;40.960;14.836;2023-11-21T11:09:39;22.20;99.90
31725;DHT22;18306;40.960;14.836;2023-11-21T11:12:08;22.00;99.90
31725;DHT22;18306;40.960;14.836;2023-11-21T11:14:36;22.00;99.90
31725;DHT22;18306;40.960;14.836;2023-11-21T11:17:08;22.00;99.90
31725;DHT22;18306;40.960;14.836;2023-11-21T11:19:39;22.30;99.90
31725;DHT22;18306;40.960;14.836;2023-11-21T11:38:16;21.60;99.90
31725;DHT22;18306;40.960;14.836;2023-11-21T11:40:47;21.30;99.90
31725;DHT22;18306;40.960;14.836;2023-11-21T11:43:25;21.30;99.90
31725;DHT22;18306;40.960;14.836;2023-11-21T11:45:56;21.50;99.90
31725;DHT22;18306;40.960;14.836;2023-11-21T11:48:23;21.50;99.90
31725;DHT22;18306;40.960;14.836;2023-11-21T11:51:06;21.30;99.90
31725;DHT22;18306;40.960;14.836;2023-11-21T11:53:39;21.30;99.90
31725;DHT22;18306;40.960;14.836;2023-11-21T11:56:27;21.30;99.90
31725;DHT22;18306;40.960;14.836;2023-11-21T11:59:14;21.10;99.90
31725;DHT22;18306;40.960;14.836;2023-11-21T12:02:06;20.90;99.90
31725;DHT22;18306;40.960;14.836;2023-11-21T12:04:41;21.00;99.90
31725;DHT22;18306;40.960;14.836;2023-11-21T12:07:09;21.00;99.90
31725;DHT22;18306;40.960;14.836;2023-11-21T12:09:37;21.30;99.90
31725;DHT22;18306;40.960;14.836;2023-11-21T12:12:05;21.30;99.90
31725;DHT22;18306;40.960;14.836;2023-11-21T12:14:33;21.20;99.90
31725;DHT22;18306;40.960;14.836;2023-11-21T12:17:00;21.40;99.90
31725;DHT22;18306;40.960;14.836;2023-11-21T12:19:27;21.40;99.90
31725;DHT22;18306;40.960;14.836;2023-11-21T12:21:54;21.30;99.90
31725;DHT22;18306;40.960;14.836;2023-11-21T12:24:23;21.10;99.90
31725;DHT22;18306;40.960;14.836;2023-11-21T12:26:50;21.20;99.90
31725;DHT22;18306;40.960;14.836;2023-11-21T12:29:25;21.10;99.90
31725;DHT22;18306;40.960;14.836;2023-11-21T12:31:52;21.10;99.90
31725;DHT22;18306;40.960;14.836;2023-11-21T12:34:22;21.10;99.90
31725;DHT22;18306;40.960;14.836;2023-11-21T12:36:50;21.10;99.90
31725;DHT22;18306;40.960;14.836;2023-11-21T12:39:30;21.10;99.90
31725;DHT22;18306;40.960;14.836;2023-11-21T12:42:03;20.90;99.90
31725;DHT22;18306;40.960;14.836;2023-11-21T12:44:39;21.10;99.90
31725;DHT22;18306;40.960;14.836;2023-11-21T12:47:09;21.00;99.90
31725;DHT22;18306;40.960;14.836;2023-11-21T12:49:38;21.20;99.90
31725;DHT22;18306;40.960;14.836;2023-11-21T12:52:06;21.10;99.90
31725;DHT22;18306;40.960;14.836;2023-11-21T12:54:35;21.20;99.90
31725;DHT22;18306;40.960;14.836;2023-11-21T12:57:07;21.40;99.90
31725;DHT22;18306;40.960;14.836;2023-11-21T12:59:35;21.30;99.90
31725;DHT22;18306;40.960;14.836;2023-11-21T13:02:05;21.10;99.90
31725;DHT22;18306;40.960;14.836;2023-11-21T13:04:35;21.10;99.90
31725;DHT22;18306;40.960;14.836;2023-11-21T13:07:04;21.00;99.90
31725;DHT22;18306;40.960;14.836;2023-11-21T13:09:54;20.90;99.90
31725;DHT22;18306;40.960;14.836;2023-11-21T13:12:25;20.70;99.90
31725;DHT22;18306;40.960;14.836;2023-11-21T13:15:05;20.60;99.90
31725;DHT22;18306;40.960;14.836;2023-11-21T13:17:35;20.60;99.90
31725;DHT22;18306;40.960;14.836;2023-11-21T13:20:02;20.60;99.90
31725;DHT22;18306;40.960;14.836;2023-11-21T13:22:32;20.50;99.90
31725;DHT22;18306;40.960;14.836;2023-11-21T13:24:59;20.50;99.90
31725;DHT22;18306;40.960;14.836;2023-11-21T13:27:26;20.50;99.90
31725;DHT22;18306;40.960;14.836;2023-11-21T13:29:53;20.30;99.90
31725;DHT22;18306;40.960;14.836;2023-11-21T13:32:20;20.10;99.90
31725;DHT22;18306;40.960;14.836;2023-11-21T13:34:48;20.20;99.90
31725;DHT22;18306;40.960;14.836;2023-11-21T13:37:19;20.10;99.90
31725;DHT22;18306;40.960;14.836;2023-11-21T13:39:46;20.10;99.90
31725;DHT22;18306;40.960;14.836;2023-11-21T13:42:17;20.10;99.90
31725;DHT22;18306;40.960;14.836;2023-11-21T13:44:45;20.10;99.90
31725;DHT22;18306;40.960;14.836;2023-11-21T13:47:15;20.10;99.90
31725;DHT22;18306;40.960;14.836;2023-11-21T13:49:42;20.10;99.90
31725;DHT22;18306;40.960;14.836;2023-11-21T13:52:09;20.20;99.90
31725;DHT22;18306;40.960;14.836;2023-11-21T13:54:42;20.10;99.90
31725;DHT22;18306;40.960;14.836;2023-11-21T13:57:09;19.90;99.90
31725;DHT22;18306;40.960;14.836;2023-11-21T13:59:36;20.00;99.90
31725;DHT22;18306;40.960;14.836;2023-11-21T14:02:03;20.00;99.90
31725;DHT22;18306;40.960;14.836;2023-11-21T14:04:44;20.00;99.90
31725;DHT22;18306;40.960;14.836;2023-11-21T14:07:21;20.00;99.90
31725;DHT22;18306;40.960;14.836;2023-11-21T14:09:58;20.20;99.90
31725;DHT22;18306;40.960;14.836;2023-11-21T14:12:25;20.30;99.90
31725;DHT22;18306;40.960;14.836;2023-11-21T14:14:52;20.20;99.90
31725;DHT22;18306;40.960;14.836;2023-11-21T14:17:21;20.10;99.90
31725;DHT22;18306;40.960;14.836;2023-11-21T14:19:50;20.10;99.90
31725;DHT22;18306;40.960;14.836;2023-11-21T14:22:17;20.10;99.90
31725;DHT22;18306;40.960;14.836;2023-11-21T14:24:45;20.40;99.90
31725;DHT22;18306;40.960;14.836;2023-11-21T14:27:13;20.40;99.90
31725;DHT22;18306;40.960;14.836;2023-11-21T14:29:45;20.60;99.90
31725;DHT22;18306;40.960;14.836;2023-11-21T14:32:16;20.80;99.90
31725;DHT22;18306;40.960;14.836;2023-11-21T14:34:52;20.70;99.90
31725;DHT22;18306;40.960;14.836;2023-11-21T14:37:20;20.70;99.90
31725;DHT22;18306;40.960;14.836;2023-11-21T14:39:53;20.70;99.90
31725;DHT22;18306;40.960;14.836;2023-11-21T14:42:21;20.90;99.90
31725;DHT22;18306;40.960;14.836;2023-11-21T14:44:52;20.80;99.90
31725;DHT22;18306;40.960;14.836;2023-11-21T14:47:19;21.10;99.90
31725;DHT22;18306;40.960;14.836;2023-11-21T14:49:52;21.00;99.90
31725;DHT22;18306;40.960;14.836;2023-11-21T14:52:20;21.10;99.90
31725;DHT22;18306;40.960;14.836;2023-11-21T14:55:00;20.90;99.90
31725;DHT22;18306;40.960;14.836;2023-11-21T14:57:53;21.10;99.90
31725;DHT22;18306;40.960;14.836;2023-11-21T15:00:21;20.90;99.90
31725;DHT22;18306;40.960;14.836;2023-11-21T15:03:00;20.70;99.90
31725;DHT22;18306;40.960;14.836;2023-11-21T15:05:28;20.80;99.90
31725;DHT22;18306;40.960;14.836;2023-11-21T15:07:55;20.40;99.90
31725;DHT22;18306;40.960;14.836;2023-11-21T15:10:28;20.40;99.90
31725;DHT22;18306;40.960;14.836;2023-11-21T15:13:13;20.40;99.90
31725;DHT22;18306;40.960;14.836;2023-11-21T15:15:42;20.30;99.90
31725;DHT22;18306;40.960;14.836;2023-11-21T15:18:09;20.40;99.90
31725;DHT22;18306;40.960;14.836;2023-11-21T15:20:42;20.40;99.90
31725;DHT22;18306;40.960;14.836;2023-11-21T15:23:10;20.40;99.90
31725;DHT22;18306;40.960;14.836;2023-11-21T15:25:39;20.30;99.90
31725;DHT22;18306;40.960;14.836;2023-11-21T15:28:06;20.20;99.90
31725;DHT22;18306;40.960;14.836;2023-11-21T15:30:34;20.00;99.90
31725;DHT22;18306;40.960;14.836;2023-11-21T15:33:01;20.20;99.90
31725;DHT22;18306;40.960;14.836;2023-11-21T15:35:30;20.50;99.90
31725;DHT22;18306;40.960;14.836;2023-11-21T15:37:58;20.70;99.90
31725;DHT22;18306;40.960;14.836;2023-11-21T15:40:26;20.80;99.90
31725;DHT22;18306;40.960;14.836;2023-11-21T15:42:53;21.00;99.90